SWR5TB LSZH-EDDH
Flight info
| Callsign | SWR5TB |
|---|---|
| Flight time | 1h 18m |
| Altitude | 22000 |
| Route | DEGES Z1 ETAGO Z3 LBU/N0444F300 N851 RIMKI/N0408F240 N851 OSBIT P605 NOLGO NOLGO6A |
| Aircraft | A320/M-SDE3FGHIRWY/LB1 |
Departure
| Time | 2026-05-05 19:05 |
|---|---|
| Airport | Zürich Airport (LSZH) |
Arrival
| Time | 2026-05-05 20:24 |
|---|---|
| Airport | Hamburg Helmut Schmidt Airport (EDDH) |
| Time | Latitude | Longitude | Altitude | Speed | Heading |
|---|---|---|---|---|---|
| 2026-05-05 18:20 | 47.45571 | 8.55972 | 1397 ft | 0 kts | 6° |
| 2026-05-05 18:58 | 47.45608 | 8.55984 | 1397 ft | 6 kts | 28° |
| 2026-05-05 18:58 | 47.45625 | 8.56033 | 1401 ft | 8 kts | 81° |
| 2026-05-05 18:59 | 47.45619 | 8.56138 | 1398 ft | 7 kts | 96° |
| 2026-05-05 18:59 | 47.45615 | 8.56193 | 1401 ft | 4 kts | 95° |
| 2026-05-05 18:59 | 47.45616 | 8.56220 | 1398 ft | 2 kts | 82° |
| 2026-05-05 18:59 | 47.45618 | 8.56228 | 1398 ft | 0 kts | 73° |
| 2026-05-05 19:00 | 47.45623 | 8.56243 | 1398 ft | 1 kts | 62° |
| 2026-05-05 19:00 | 47.45626 | 8.56248 | 1407 ft | 3 kts | 51° |
| 2026-05-05 19:00 | 47.45628 | 8.56251 | 1407 ft | 0 kts | 45° |
| 2026-05-05 19:01 | 47.45629 | 8.56252 | 1407 ft | 1 kts | 45° |
| 2026-05-05 19:01 | 47.45648 | 8.56267 | 1407 ft | 1 kts | 20° |
| 2026-05-05 19:01 | 47.45675 | 8.56274 | 1407 ft | 8 kts | 6° |
| 2026-05-05 19:02 | 47.45721 | 8.56281 | 1404 ft | 8 kts | 6° |
| 2026-05-05 19:02 | 47.45793 | 8.56293 | 1400 ft | 12 kts | 6° |
| 2026-05-05 19:02 | 47.45881 | 8.56306 | 1400 ft | 12 kts | 5° |
| 2026-05-05 19:02 | 47.45962 | 8.56317 | 1403 ft | 11 kts | 6° |
| 2026-05-05 19:03 | 47.46025 | 8.56327 | 1403 ft | 4 kts | 6° |
| 2026-05-05 19:03 | 47.46028 | 8.56328 | 1403 ft | 0 kts | 6° |
| 2026-05-05 19:03 | 47.46029 | 8.56328 | 1403 ft | 2 kts | 6° |
| 2026-05-05 19:04 | 47.46083 | 8.56337 | 1402 ft | 8 kts | 6° |
| 2026-05-05 19:04 | 47.46161 | 8.56346 | 1405 ft | 12 kts | 4° |
| 2026-05-05 19:04 | 47.46232 | 8.56309 | 1408 ft | 10 kts | 317° |
| 2026-05-05 19:04 | 47.46239 | 8.56300 | 1405 ft | 2 kts | 317° |
| 2026-05-05 19:05 | 47.46405 | 8.56070 | 1406 ft | 78 kts | 316° |
| 2026-05-05 19:05 | 47.47013 | 8.55232 | 1407 ft | 158 kts | 317° |
| 2026-05-05 19:05 | 47.47911 | 8.53974 | 1834 ft | 185 kts | 315° |
| 2026-05-05 19:05 | 47.48861 | 8.52715 | 2889 ft | 184 kts | 316° |
| 2026-05-05 19:06 | 47.49909 | 8.51505 | 3519 ft | 201 kts | 323° |
| 2026-05-05 19:06 | 47.51156 | 8.50428 | 4190 ft | 214 kts | 326° |
| 2026-05-05 19:06 | 47.52400 | 8.49156 | 4887 ft | 218 kts | 310° |
| 2026-05-05 19:06 | 47.53244 | 8.47351 | 5681 ft | 212 kts | 288° |
| 2026-05-05 19:07 | 47.53529 | 8.45246 | 6451 ft | 209 kts | 266° |
| 2026-05-05 19:07 | 47.53239 | 8.43154 | 7205 ft | 209 kts | 245° |
| 2026-05-05 19:07 | 47.52620 | 8.41224 | 7823 ft | 205 kts | 244° |
| 2026-05-05 19:07 | 47.51996 | 8.39301 | 7832 ft | 213 kts | 241° |
| 2026-05-05 19:08 | 47.51013 | 8.37672 | 8566 ft | 216 kts | 216° |
| 2026-05-05 19:08 | 47.49600 | 8.36890 | 9373 ft | 223 kts | 188° |
| 2026-05-05 19:08 | 47.48026 | 8.37234 | 9827 ft | 238 kts | 159° |
| 2026-05-05 19:08 | 47.46757 | 8.38841 | 9898 ft | 249 kts | 126° |
| 2026-05-05 19:09 | 47.46068 | 8.41215 | 9912 ft | 254 kts | 114° |
| 2026-05-05 19:09 | 47.45704 | 8.43798 | 9896 ft | 266 kts | 95° |
| 2026-05-05 19:09 | 47.45709 | 8.46682 | 9898 ft | 299 kts | 92° |
| 2026-05-05 19:09 | 47.45708 | 8.49883 | 10163 ft | 324 kts | 92° |
| 2026-05-05 19:10 | 47.45700 | 8.53339 | 10442 ft | 348 kts | 92° |
| 2026-05-05 19:10 | 47.45726 | 8.56957 | 10930 ft | 362 kts | 90° |
| 2026-05-05 19:10 | 47.45836 | 8.60707 | 11652 ft | 369 kts | 89° |
| 2026-05-05 19:10 | 47.45992 | 8.64517 | 12417 ft | 374 kts | 88° |
| 2026-05-05 19:11 | 47.46164 | 8.68380 | 13180 ft | 379 kts | 88° |
| 2026-05-05 19:11 | 47.46336 | 8.72349 | 13906 ft | 384 kts | 88° |
| 2026-05-05 19:11 | 47.46499 | 8.76308 | 14592 ft | 388 kts | 89° |
| 2026-05-05 19:11 | 47.46638 | 8.80304 | 15305 ft | 390 kts | 91° |
| 2026-05-05 19:12 | 47.46427 | 8.84292 | 16017 ft | 390 kts | 102° |
| 2026-05-05 19:12 | 47.45863 | 8.88211 | 16720 ft | 391 kts | 105° |
| 2026-05-05 19:12 | 47.45286 | 8.92099 | 17434 ft | 394 kts | 105° |
| 2026-05-05 19:12 | 47.44709 | 8.96069 | 18144 ft | 397 kts | 104° |
| 2026-05-05 19:13 | 47.44137 | 9.00065 | 18729 ft | 400 kts | 104° |
| 2026-05-05 19:13 | 47.43563 | 9.04099 | 19321 ft | 403 kts | 104° |
| 2026-05-05 19:13 | 47.42983 | 9.08168 | 19917 ft | 406 kts | 104° |
| 2026-05-05 19:13 | 47.42407 | 9.12270 | 20497 ft | 410 kts | 103° |
| 2026-05-05 19:14 | 47.42207 | 9.16501 | 21058 ft | 418 kts | 88° |
| 2026-05-05 19:14 | 47.42783 | 9.20744 | 21561 ft | 427 kts | 71° |
| 2026-05-05 19:14 | 47.44196 | 9.24618 | 21842 ft | 432 kts | 52° |
| 2026-05-05 19:14 | 47.46382 | 9.27649 | 21900 ft | 431 kts | 32° |
| 2026-05-05 19:15 | 47.49075 | 9.29497 | 21886 ft | 428 kts | 14° |
| 2026-05-05 19:15 | 47.51994 | 9.30313 | 21884 ft | 427 kts | 7° |
| 2026-05-05 19:15 | 47.54929 | 9.31012 | 21889 ft | 427 kts | 7° |
| 2026-05-05 19:15 | 47.57861 | 9.31718 | 21883 ft | 427 kts | 7° |
| 2026-05-05 19:16 | 47.60793 | 9.32431 | 21888 ft | 427 kts | 7° |
| 2026-05-05 19:16 | 47.63731 | 9.33147 | 21883 ft | 427 kts | 8° |
| 2026-05-05 19:16 | 47.66659 | 9.33863 | 21886 ft | 426 kts | 8° |
| 2026-05-05 19:16 | 47.69592 | 9.34582 | 21877 ft | 426 kts | 8° |
| 2026-05-05 19:17 | 47.72515 | 9.35301 | 21880 ft | 426 kts | 8° |
| 2026-05-05 19:17 | 47.75437 | 9.36018 | 21879 ft | 426 kts | 8° |
| 2026-05-05 19:17 | 47.78329 | 9.36727 | 21877 ft | 426 kts | 8° |
| 2026-05-05 19:17 | 47.81253 | 9.37443 | 21877 ft | 426 kts | 8° |
| 2026-05-05 19:18 | 47.84183 | 9.38162 | 21878 ft | 426 kts | 8° |
| 2026-05-05 19:18 | 47.87095 | 9.38879 | 21871 ft | 424 kts | 8° |
| 2026-05-05 19:18 | 47.90009 | 9.39596 | 21875 ft | 424 kts | 8° |
| 2026-05-05 19:18 | 47.92921 | 9.40311 | 21873 ft | 424 kts | 8° |
| 2026-05-05 19:19 | 47.95833 | 9.41027 | 21872 ft | 424 kts | 8° |
| 2026-05-05 19:19 | 47.98744 | 9.41747 | 21874 ft | 424 kts | 8° |
| 2026-05-05 19:19 | 48.01650 | 9.42470 | 21866 ft | 424 kts | 8° |
| 2026-05-05 19:19 | 48.04559 | 9.43190 | 21867 ft | 424 kts | 8° |
| 2026-05-05 19:20 | 48.07467 | 9.43912 | 21866 ft | 424 kts | 9° |
| 2026-05-05 19:20 | 48.10374 | 9.44635 | 21858 ft | 424 kts | 9° |
| 2026-05-05 19:20 | 48.13284 | 9.45359 | 21860 ft | 423 kts | 9° |
| 2026-05-05 19:20 | 48.16194 | 9.46037 | 21857 ft | 423 kts | 5° |
| 2026-05-05 19:21 | 48.19123 | 9.46445 | 21858 ft | 423 kts | 4° |
| 2026-05-05 19:21 | 48.22059 | 9.46806 | 21857 ft | 423 kts | 4° |
| 2026-05-05 19:21 | 48.24995 | 9.47136 | 21854 ft | 423 kts | 3° |
| 2026-05-05 19:21 | 48.27932 | 9.47452 | 21851 ft | 424 kts | 4° |
| 2026-05-05 19:22 | 48.30875 | 9.47770 | 21859 ft | 424 kts | 4° |
| 2026-05-05 19:22 | 48.33782 | 9.48090 | 21854 ft | 423 kts | 3° |
| 2026-05-05 19:22 | 48.36717 | 9.48424 | 21852 ft | 423 kts | 4° |
| 2026-05-05 19:22 | 48.39655 | 9.48768 | 21853 ft | 423 kts | 4° |
| 2026-05-05 19:23 | 48.42589 | 9.49120 | 21855 ft | 423 kts | 4° |
| 2026-05-05 19:23 | 48.45520 | 9.49474 | 21848 ft | 423 kts | 4° |
| 2026-05-05 19:23 | 48.48450 | 9.49824 | 21849 ft | 422 kts | 4° |
| 2026-05-05 19:23 | 48.51384 | 9.50166 | 21848 ft | 422 kts | 4° |
| 2026-05-05 19:24 | 48.54315 | 9.50502 | 21846 ft | 422 kts | 4° |
| 2026-05-05 19:24 | 48.57246 | 9.50842 | 21846 ft | 423 kts | 4° |
| 2026-05-05 19:24 | 48.60177 | 9.51185 | 21847 ft | 423 kts | 4° |
| 2026-05-05 19:24 | 48.63112 | 9.51531 | 21844 ft | 423 kts | 4° |
| 2026-05-05 19:25 | 48.66044 | 9.51879 | 21849 ft | 422 kts | 4° |
| 2026-05-05 19:25 | 48.68970 | 9.52226 | 21851 ft | 422 kts | 4° |
| 2026-05-05 19:25 | 48.71900 | 9.52573 | 21849 ft | 422 kts | 4° |
| 2026-05-05 19:25 | 48.74830 | 9.52920 | 21848 ft | 422 kts | 4° |
| 2026-05-05 19:26 | 48.77765 | 9.53264 | 21847 ft | 422 kts | 4° |
| 2026-05-05 19:26 | 48.80691 | 9.53608 | 21846 ft | 422 kts | 4° |
| 2026-05-05 19:26 | 48.83621 | 9.53955 | 21845 ft | 422 kts | 4° |
| 2026-05-05 19:26 | 48.86515 | 9.54302 | 21845 ft | 422 kts | 4° |
| 2026-05-05 19:27 | 48.89441 | 9.54655 | 21843 ft | 422 kts | 4° |
| 2026-05-05 19:27 | 48.92367 | 9.55006 | 21842 ft | 422 kts | 4° |
| 2026-05-05 19:27 | 48.95298 | 9.55355 | 21842 ft | 422 kts | 4° |
| 2026-05-05 19:27 | 48.98223 | 9.55702 | 21841 ft | 422 kts | 4° |
| 2026-05-05 19:28 | 49.01152 | 9.56051 | 21841 ft | 422 kts | 4° |
| 2026-05-05 19:28 | 49.03131 | 9.56288 | 21840 ft | 422 kts | 4° |
| 2026-05-05 19:28 | 49.06059 | 9.56638 | 21839 ft | 422 kts | 4° |
| 2026-05-05 19:28 | 49.08983 | 9.56988 | 21839 ft | 422 kts | 4° |
| 2026-05-05 19:29 | 49.11920 | 9.57341 | 21838 ft | 422 kts | 4° |
| 2026-05-05 19:29 | 49.14810 | 9.57690 | 21839 ft | 422 kts | 4° |
| 2026-05-05 19:29 | 49.17771 | 9.58046 | 21839 ft | 422 kts | 4° |
| 2026-05-05 19:29 | 49.20703 | 9.58399 | 21839 ft | 422 kts | 4° |
| 2026-05-05 19:30 | 49.23588 | 9.58745 | 21839 ft | 422 kts | 4° |
| 2026-05-05 19:30 | 49.26554 | 9.59107 | 21842 ft | 422 kts | 4° |
| 2026-05-05 19:30 | 49.29438 | 9.59462 | 21840 ft | 422 kts | 4° |
| 2026-05-05 19:30 | 49.32406 | 9.59827 | 21840 ft | 422 kts | 4° |
| 2026-05-05 19:31 | 49.35328 | 9.60182 | 21846 ft | 422 kts | 4° |
| 2026-05-05 19:31 | 49.38213 | 9.60527 | 21839 ft | 421 kts | 4° |
| 2026-05-05 19:31 | 49.41136 | 9.60879 | 21837 ft | 421 kts | 4° |
| 2026-05-05 19:31 | 49.44059 | 9.61233 | 21838 ft | 421 kts | 4° |
| 2026-05-05 19:32 | 49.46985 | 9.61591 | 21836 ft | 421 kts | 4° |
| 2026-05-05 19:32 | 49.49906 | 9.61950 | 21837 ft | 421 kts | 4° |
| 2026-05-05 19:32 | 49.52831 | 9.62308 | 21836 ft | 421 kts | 4° |
| 2026-05-05 19:32 | 49.55761 | 9.62664 | 21836 ft | 421 kts | 4° |
| 2026-05-05 19:33 | 49.58686 | 9.63018 | 21834 ft | 421 kts | 5° |
| 2026-05-05 19:33 | 49.61608 | 9.63376 | 21836 ft | 421 kts | 5° |
| 2026-05-05 19:33 | 49.64534 | 9.63735 | 21836 ft | 421 kts | 5° |
| 2026-05-05 19:33 | 49.67453 | 9.64097 | 21836 ft | 421 kts | 5° |
| 2026-05-05 19:34 | 49.70373 | 9.64459 | 21835 ft | 421 kts | 5° |
| 2026-05-05 19:34 | 49.73291 | 9.64818 | 21835 ft | 421 kts | 5° |
| 2026-05-05 19:34 | 49.76208 | 9.65176 | 21832 ft | 421 kts | 5° |
| 2026-05-05 19:35 | 49.82048 | 9.65897 | 21833 ft | 420 kts | 5° |
| 2026-05-05 19:35 | 49.84959 | 9.66255 | 21827 ft | 420 kts | 5° |
| 2026-05-05 19:35 | 49.87875 | 9.66617 | 21827 ft | 420 kts | 5° |
| 2026-05-05 19:35 | 49.90786 | 9.66982 | 21827 ft | 420 kts | 5° |
| 2026-05-05 19:36 | 49.93667 | 9.67341 | 21827 ft | 420 kts | 5° |
| 2026-05-05 19:36 | 49.96578 | 9.67703 | 21825 ft | 420 kts | 5° |
| 2026-05-05 19:36 | 49.99486 | 9.68065 | 21827 ft | 420 kts | 5° |
| 2026-05-05 19:36 | 50.02407 | 9.68430 | 21821 ft | 420 kts | 5° |
| 2026-05-05 19:37 | 50.05319 | 9.68791 | 21824 ft | 420 kts | 5° |
| 2026-05-05 19:37 | 50.08235 | 9.69154 | 21826 ft | 420 kts | 5° |
| 2026-05-05 19:37 | 50.11147 | 9.69516 | 21824 ft | 420 kts | 5° |
| 2026-05-05 19:37 | 50.14062 | 9.69883 | 21825 ft | 420 kts | 5° |
| 2026-05-05 19:38 | 50.16975 | 9.70252 | 21824 ft | 420 kts | 5° |
| 2026-05-05 19:38 | 50.19887 | 9.70619 | 21821 ft | 420 kts | 5° |
| 2026-05-05 19:38 | 50.22801 | 9.70982 | 21822 ft | 420 kts | 5° |
| 2026-05-05 19:38 | 50.25716 | 9.71348 | 21819 ft | 420 kts | 5° |
| 2026-05-05 19:39 | 50.28627 | 9.71715 | 21819 ft | 421 kts | 5° |
| 2026-05-05 19:39 | 50.31544 | 9.72080 | 21819 ft | 420 kts | 5° |
| 2026-05-05 19:39 | 50.34463 | 9.72446 | 21822 ft | 420 kts | 5° |
| 2026-05-05 19:39 | 50.37377 | 9.72813 | 21821 ft | 420 kts | 5° |
| 2026-05-05 19:40 | 50.40288 | 9.73181 | 21814 ft | 420 kts | 5° |
| 2026-05-05 19:40 | 50.43199 | 9.73551 | 21816 ft | 420 kts | 5° |
| 2026-05-05 19:40 | 50.46106 | 9.73924 | 21814 ft | 419 kts | 5° |
| 2026-05-05 19:40 | 50.49018 | 9.74298 | 21809 ft | 421 kts | 6° |
| 2026-05-05 19:41 | 50.51945 | 9.74673 | 21816 ft | 422 kts | 6° |
| 2026-05-05 19:41 | 50.54871 | 9.75046 | 21818 ft | 422 kts | 6° |
| 2026-05-05 19:41 | 50.57799 | 9.75419 | 21811 ft | 422 kts | 6° |
| 2026-05-05 19:41 | 50.60729 | 9.75792 | 21807 ft | 422 kts | 6° |
| 2026-05-05 19:42 | 50.63655 | 9.76165 | 21811 ft | 422 kts | 6° |
| 2026-05-05 19:42 | 50.66581 | 9.76540 | 21806 ft | 422 kts | 6° |
| 2026-05-05 19:42 | 50.69506 | 9.76917 | 21806 ft | 422 kts | 6° |
| 2026-05-05 19:42 | 50.72436 | 9.77295 | 21803 ft | 422 kts | 6° |
| 2026-05-05 19:43 | 50.75361 | 9.77674 | 21804 ft | 422 kts | 6° |
| 2026-05-05 19:43 | 50.78289 | 9.78050 | 21803 ft | 422 kts | 6° |
| 2026-05-05 19:43 | 50.81213 | 9.78424 | 21803 ft | 422 kts | 6° |
| 2026-05-05 19:43 | 50.84143 | 9.78801 | 21802 ft | 422 kts | 6° |
| 2026-05-05 19:44 | 50.87071 | 9.79180 | 21803 ft | 422 kts | 6° |
| 2026-05-05 19:44 | 50.89997 | 9.79560 | 21802 ft | 422 kts | 6° |
| 2026-05-05 19:44 | 50.92922 | 9.79942 | 21794 ft | 422 kts | 6° |
| 2026-05-05 19:44 | 50.95850 | 9.80326 | 21799 ft | 423 kts | 6° |
| 2026-05-05 19:45 | 50.98782 | 9.80710 | 21796 ft | 423 kts | 6° |
| 2026-05-05 19:45 | 51.01711 | 9.81092 | 21801 ft | 423 kts | 5° |
| 2026-05-05 19:45 | 51.04646 | 9.81473 | 21794 ft | 423 kts | 5° |
| 2026-05-05 19:45 | 51.07577 | 9.81850 | 21801 ft | 423 kts | 5° |
| 2026-05-05 19:46 | 51.10513 | 9.82229 | 21800 ft | 423 kts | 5° |
| 2026-05-05 19:46 | 51.13446 | 9.82611 | 21797 ft | 423 kts | 6° |
| 2026-05-05 19:46 | 51.16374 | 9.82993 | 21790 ft | 423 kts | 5° |
| 2026-05-05 19:46 | 51.19316 | 9.83379 | 21798 ft | 425 kts | 5° |
| 2026-05-05 19:47 | 51.22272 | 9.83769 | 21795 ft | 426 kts | 5° |
| 2026-05-05 19:47 | 51.25219 | 9.84157 | 21790 ft | 426 kts | 5° |
| 2026-05-05 19:47 | 51.28184 | 9.84549 | 21797 ft | 426 kts | 5° |
| 2026-05-05 19:47 | 51.31106 | 9.84936 | 21799 ft | 426 kts | 5° |
| 2026-05-05 19:48 | 51.34068 | 9.85328 | 21803 ft | 426 kts | 5° |
| 2026-05-05 19:48 | 51.37021 | 9.85720 | 21801 ft | 426 kts | 5° |
| 2026-05-05 19:48 | 51.39982 | 9.86111 | 21811 ft | 426 kts | 5° |
| 2026-05-05 19:48 | 51.42943 | 9.86503 | 21803 ft | 427 kts | 5° |
| 2026-05-05 19:49 | 51.45904 | 9.86895 | 21804 ft | 428 kts | 5° |
| 2026-05-05 19:49 | 51.47867 | 9.87153 | 21804 ft | 428 kts | 5° |
| 2026-05-05 19:49 | 51.51839 | 9.87676 | 21805 ft | 428 kts | 5° |
| 2026-05-05 19:49 | 51.54804 | 9.88068 | 21806 ft | 428 kts | 5° |
| 2026-05-05 19:50 | 51.57775 | 9.88459 | 21808 ft | 428 kts | 5° |
| 2026-05-05 19:50 | 51.60742 | 9.88852 | 21810 ft | 428 kts | 5° |
| 2026-05-05 19:50 | 51.63708 | 9.89248 | 21820 ft | 428 kts | 4° |
| 2026-05-05 19:50 | 51.66676 | 9.89650 | 21816 ft | 428 kts | 4° |
| 2026-05-05 19:51 | 51.69649 | 9.90055 | 21816 ft | 428 kts | 4° |
| 2026-05-05 19:51 | 51.72577 | 9.90452 | 21814 ft | 428 kts | 4° |
| 2026-05-05 19:51 | 51.75579 | 9.90855 | 21816 ft | 428 kts | 4° |
| 2026-05-05 19:51 | 51.78515 | 9.91245 | 21824 ft | 428 kts | 4° |
| 2026-05-05 19:52 | 51.81487 | 9.91643 | 21824 ft | 428 kts | 4° |
| 2026-05-05 19:52 | 51.84455 | 9.92045 | 21824 ft | 428 kts | 4° |
| 2026-05-05 19:52 | 51.87422 | 9.92450 | 21827 ft | 428 kts | 4° |
| 2026-05-05 19:52 | 51.90384 | 9.92851 | 21824 ft | 428 kts | 4° |
| 2026-05-05 19:53 | 51.93353 | 9.93248 | 21825 ft | 428 kts | 4° |
| 2026-05-05 19:53 | 51.96325 | 9.93646 | 21836 ft | 428 kts | 4° |
| 2026-05-05 19:53 | 51.99291 | 9.94051 | 21835 ft | 428 kts | 4° |
| 2026-05-05 19:53 | 52.02254 | 9.94460 | 21835 ft | 428 kts | 4° |
| 2026-05-05 19:54 | 52.05224 | 9.94871 | 21834 ft | 428 kts | 4° |
| 2026-05-05 19:54 | 52.08193 | 9.95281 | 21838 ft | 428 kts | 4° |
| 2026-05-05 19:54 | 52.11161 | 9.95688 | 21838 ft | 428 kts | 3° |
| 2026-05-05 19:54 | 52.14132 | 9.96093 | 21838 ft | 428 kts | 3° |
| 2026-05-05 19:55 | 52.17100 | 9.96497 | 21844 ft | 429 kts | 3° |
| 2026-05-05 19:55 | 52.20071 | 9.96900 | 21845 ft | 429 kts | 3° |
| 2026-05-05 19:55 | 52.23046 | 9.97304 | 21847 ft | 429 kts | 3° |
| 2026-05-05 19:55 | 52.26018 | 9.97710 | 21851 ft | 429 kts | 3° |
| 2026-05-05 19:56 | 52.28989 | 9.98123 | 21851 ft | 429 kts | 3° |
| 2026-05-05 19:56 | 52.31964 | 9.98537 | 21854 ft | 429 kts | 3° |
| 2026-05-05 19:56 | 52.34938 | 9.98947 | 21868 ft | 428 kts | 3° |
| 2026-05-05 19:56 | 52.37858 | 9.99344 | 21857 ft | 426 kts | 3° |
| 2026-05-05 19:57 | 52.40808 | 9.99745 | 21860 ft | 425 kts | 3° |
| 2026-05-05 19:57 | 52.42806 | 10.00019 | 21861 ft | 425 kts | 3° |
| 2026-05-05 19:57 | 52.46699 | 10.00557 | 21863 ft | 424 kts | 3° |
| 2026-05-05 19:57 | 52.49643 | 10.00968 | 21865 ft | 424 kts | 3° |
| 2026-05-05 19:58 | 52.52592 | 10.01382 | 21871 ft | 424 kts | 3° |
| 2026-05-05 19:58 | 52.55525 | 10.01940 | 21864 ft | 425 kts | 9° |
| 2026-05-05 19:58 | 52.58395 | 10.03116 | 21871 ft | 425 kts | 14° |
| 2026-05-05 19:58 | 52.61252 | 10.04400 | 21863 ft | 425 kts | 14° |
| 2026-05-05 19:59 | 52.64093 | 10.05673 | 21766 ft | 423 kts | 14° |
| 2026-05-05 19:59 | 52.66947 | 10.06950 | 21519 ft | 424 kts | 14° |
| 2026-05-05 19:59 | 52.69781 | 10.08220 | 21076 ft | 421 kts | 14° |
| 2026-05-05 19:59 | 52.72594 | 10.09485 | 20595 ft | 417 kts | 14° |
| 2026-05-05 20:00 | 52.75382 | 10.10737 | 20138 ft | 413 kts | 14° |
| 2026-05-05 20:00 | 52.78181 | 10.11647 | 19673 ft | 408 kts | 5° |
| 2026-05-05 20:00 | 52.81001 | 10.11892 | 19219 ft | 404 kts | 360° |
| 2026-05-05 20:00 | 52.83797 | 10.11975 | 18774 ft | 400 kts | 0° |
| 2026-05-05 20:01 | 52.86569 | 10.12060 | 18328 ft | 397 kts | 0° |
| 2026-05-05 20:01 | 52.89319 | 10.12148 | 17839 ft | 394 kts | 0° |
| 2026-05-05 20:01 | 52.92051 | 10.12238 | 17337 ft | 391 kts | 0° |
| 2026-05-05 20:01 | 52.94731 | 10.12330 | 16840 ft | 388 kts | 0° |
| 2026-05-05 20:02 | 52.97421 | 10.12424 | 16349 ft | 385 kts | 0° |
| 2026-05-05 20:02 | 53.00089 | 10.12516 | 15874 ft | 381 kts | 0° |
| 2026-05-05 20:02 | 53.02698 | 10.12604 | 15381 ft | 367 kts | 0° |
| 2026-05-05 20:02 | 53.05197 | 10.12687 | 14917 ft | 352 kts | 0° |
| 2026-05-05 20:03 | 53.07600 | 10.12768 | 14456 ft | 339 kts | 0° |
| 2026-05-05 20:03 | 53.09919 | 10.12848 | 14002 ft | 328 kts | 0° |
| 2026-05-05 20:03 | 53.12167 | 10.12925 | 13538 ft | 319 kts | 0° |
| 2026-05-05 20:03 | 53.14374 | 10.13002 | 13026 ft | 315 kts | 0° |
| 2026-05-05 20:04 | 53.16547 | 10.13076 | 12527 ft | 310 kts | 0° |
| 2026-05-05 20:04 | 53.18692 | 10.13144 | 12035 ft | 306 kts | 360° |
| 2026-05-05 20:04 | 53.20816 | 10.13210 | 11554 ft | 305 kts | 359° |
| 2026-05-05 20:04 | 53.22949 | 10.13277 | 11081 ft | 307 kts | 360° |
| 2026-05-05 20:05 | 53.25075 | 10.13347 | 10814 ft | 302 kts | 0° |
| 2026-05-05 20:05 | 53.27163 | 10.13420 | 10586 ft | 298 kts | 359° |
| 2026-05-05 20:05 | 53.29237 | 10.13488 | 10369 ft | 298 kts | 360° |
| 2026-05-05 20:05 | 53.31307 | 10.13555 | 10160 ft | 296 kts | 359° |
| 2026-05-05 20:06 | 53.33363 | 10.13624 | 9924 ft | 294 kts | 359° |
| 2026-05-05 20:06 | 53.35409 | 10.13692 | 9676 ft | 293 kts | 359° |
| 2026-05-05 20:06 | 53.37404 | 10.13440 | 9408 ft | 290 kts | 347° |
| 2026-05-05 20:06 | 53.39320 | 10.12456 | 9148 ft | 287 kts | 334° |
| 2026-05-05 20:07 | 53.41040 | 10.10822 | 8883 ft | 284 kts | 322° |
| 2026-05-05 20:07 | 53.42504 | 10.08633 | 8623 ft | 281 kts | 311° |
| 2026-05-05 20:07 | 53.43814 | 10.06197 | 8388 ft | 280 kts | 310° |
| 2026-05-05 20:07 | 53.45122 | 10.03770 | 8138 ft | 280 kts | 311° |
| 2026-05-05 20:08 | 53.46427 | 10.01357 | 7885 ft | 278 kts | 311° |
| 2026-05-05 20:08 | 53.47706 | 9.98987 | 7657 ft | 269 kts | 310° |
| 2026-05-05 20:08 | 53.48659 | 9.96401 | 7465 ft | 253 kts | 287° |
| 2026-05-05 20:08 | 53.48828 | 9.93544 | 7263 ft | 245 kts | 261° |
| 2026-05-05 20:09 | 53.48252 | 9.90897 | 7065 ft | 242 kts | 236° |
| 2026-05-05 20:09 | 53.47198 | 9.88706 | 6876 ft | 242 kts | 230° |
| 2026-05-05 20:09 | 53.46113 | 9.86539 | 6679 ft | 242 kts | 230° |
| 2026-05-05 20:09 | 53.45028 | 9.84369 | 6484 ft | 242 kts | 230° |
| 2026-05-05 20:10 | 53.44310 | 9.82933 | 6352 ft | 243 kts | 230° |
| 2026-05-05 20:10 | 53.43225 | 9.80760 | 6114 ft | 243 kts | 230° |
| 2026-05-05 20:10 | 53.42142 | 9.78589 | 5905 ft | 243 kts | 230° |
| 2026-05-05 20:10 | 53.41062 | 9.76423 | 5700 ft | 242 kts | 230° |
| 2026-05-05 20:11 | 53.39982 | 9.74262 | 5493 ft | 242 kts | 229° |
| 2026-05-05 20:11 | 53.38899 | 9.72100 | 5287 ft | 242 kts | 229° |
| 2026-05-05 20:11 | 53.37814 | 9.69936 | 5075 ft | 242 kts | 229° |
| 2026-05-05 20:11 | 53.36731 | 9.67773 | 4971 ft | 242 kts | 229° |
| 2026-05-05 20:12 | 53.35651 | 9.65622 | 4921 ft | 240 kts | 229° |
| 2026-05-05 20:12 | 53.34580 | 9.63490 | 4507 ft | 239 kts | 229° |
| 2026-05-05 20:12 | 53.33512 | 9.61361 | 4038 ft | 238 kts | 229° |
| 2026-05-05 20:12 | 53.32444 | 9.59238 | 3970 ft | 240 kts | 229° |
| 2026-05-05 20:13 | 53.31373 | 9.57109 | 3973 ft | 242 kts | 229° |
| 2026-05-05 20:13 | 53.30375 | 9.54799 | 3959 ft | 243 kts | 246° |
| 2026-05-05 20:13 | 53.30088 | 9.52081 | 3966 ft | 243 kts | 277° |
| 2026-05-05 20:13 | 53.30633 | 9.49460 | 3969 ft | 239 kts | 307° |
| 2026-05-05 20:14 | 53.31798 | 9.47523 | 3981 ft | 237 kts | 323° |
| 2026-05-05 20:14 | 53.33080 | 9.45782 | 3977 ft | 237 kts | 329° |
| 2026-05-05 20:14 | 53.34569 | 9.44916 | 3969 ft | 219 kts | 0° |
| 2026-05-05 20:14 | 53.36030 | 9.45389 | 3972 ft | 214 kts | 28° |
| 2026-05-05 20:15 | 53.37160 | 9.46949 | 3972 ft | 211 kts | 51° |
| 2026-05-05 20:15 | 53.38092 | 9.48811 | 3970 ft | 203 kts | 51° |
| 2026-05-05 20:15 | 53.38967 | 9.50589 | 3964 ft | 192 kts | 51° |
| 2026-05-05 20:15 | 53.39806 | 9.52277 | 4000 ft | 188 kts | 51° |
| 2026-05-05 20:16 | 53.40617 | 9.53892 | 3971 ft | 175 kts | 51° |
| 2026-05-05 20:16 | 53.41394 | 9.55437 | 3970 ft | 172 kts | 51° |
| 2026-05-05 20:16 | 53.42157 | 9.56954 | 3966 ft | 167 kts | 51° |
| 2026-05-05 20:16 | 53.42897 | 9.58426 | 3971 ft | 164 kts | 51° |
| 2026-05-05 20:17 | 53.43629 | 9.59882 | 3978 ft | 163 kts | 51° |
| 2026-05-05 20:17 | 53.44360 | 9.61339 | 4002 ft | 163 kts | 51° |
| 2026-05-05 20:17 | 53.45089 | 9.62791 | 4002 ft | 163 kts | 51° |
| 2026-05-05 20:17 | 53.45818 | 9.64244 | 4003 ft | 163 kts | 51° |
| 2026-05-05 20:18 | 53.46549 | 9.65703 | 4005 ft | 163 kts | 51° |
| 2026-05-05 20:18 | 53.47279 | 9.67160 | 4006 ft | 163 kts | 51° |
| 2026-05-05 20:18 | 53.47991 | 9.68580 | 4015 ft | 157 kts | 51° |
| 2026-05-05 20:18 | 53.48691 | 9.69979 | 4011 ft | 156 kts | 51° |
| 2026-05-05 20:19 | 53.49392 | 9.71381 | 3910 ft | 157 kts | 51° |
| 2026-05-05 20:19 | 53.50091 | 9.72780 | 3740 ft | 155 kts | 51° |
| 2026-05-05 20:19 | 53.50781 | 9.74161 | 3545 ft | 153 kts | 51° |
| 2026-05-05 20:19 | 53.51462 | 9.75525 | 3337 ft | 151 kts | 51° |
| 2026-05-05 20:20 | 53.52126 | 9.76855 | 3154 ft | 149 kts | 51° |
| 2026-05-05 20:20 | 53.52798 | 9.78201 | 2946 ft | 148 kts | 51° |
| 2026-05-05 20:20 | 53.53455 | 9.79521 | 2745 ft | 146 kts | 51° |
| 2026-05-05 20:20 | 53.54105 | 9.80825 | 2549 ft | 145 kts | 51° |
| 2026-05-05 20:21 | 53.54746 | 9.82111 | 2349 ft | 143 kts | 52° |
| 2026-05-05 20:21 | 53.55382 | 9.83390 | 2150 ft | 143 kts | 52° |
| 2026-05-05 20:21 | 53.56010 | 9.84652 | 1961 ft | 142 kts | 52° |
| 2026-05-05 20:21 | 53.56638 | 9.85914 | 1770 ft | 140 kts | 51° |
| 2026-05-05 20:22 | 53.57260 | 9.87167 | 1576 ft | 139 kts | 51° |
| 2026-05-05 20:22 | 53.57885 | 9.88424 | 1381 ft | 140 kts | 51° |
| 2026-05-05 20:22 | 53.58513 | 9.89689 | 1187 ft | 142 kts | 52° |
| 2026-05-05 20:22 | 53.59172 | 9.91012 | 986 ft | 150 kts | 50° |
| 2026-05-05 20:23 | 53.59866 | 9.92410 | 755 ft | 159 kts | 50° |
| 2026-05-05 20:23 | 53.60564 | 9.93823 | 494 ft | 154 kts | 50° |
| 2026-05-05 20:23 | 53.61224 | 9.95158 | 339 ft | 145 kts | 51° |
| 2026-05-05 20:23 | 53.61875 | 9.96458 | 122 ft | 142 kts | 49° |
| 2026-05-05 20:24 | 53.62462 | 9.97633 | 42 ft | 113 kts | 50° |
| 2026-05-05 20:24 | 53.62851 | 9.98435 | 45 ft | 64 kts | 51° |
| 2026-05-05 20:24 | 53.63025 | 9.98793 | 42 ft | 22 kts | 51° |
| 2026-05-05 20:24 | 53.63126 | 9.99000 | 46 ft | 26 kts | 50° |
| 2026-05-05 20:25 | 53.63236 | 9.99226 | 47 ft | 22 kts | 54° |
| 2026-05-05 20:25 | 53.63294 | 9.99466 | 45 ft | 24 kts | 90° |
| 2026-05-05 20:25 | 53.63284 | 9.99597 | 43 ft | 0 kts | 101° |
| 2026-05-05 20:26 | 53.63279 | 9.99644 | 45 ft | 5 kts | 101° |
| 2026-05-05 20:26 | 53.63260 | 9.99725 | 43 ft | 12 kts | 129° |
| 2026-05-05 20:27 | 53.63187 | 9.99792 | 44 ft | 11 kts | 155° |
| 2026-05-05 20:27 | 53.63128 | 9.99849 | 45 ft | 9 kts | 141° |
| 2026-05-05 20:27 | 53.63123 | 9.99925 | 45 ft | 6 kts | 51° |
| 2026-05-05 20:27 | 53.63144 | 9.99962 | 45 ft | 0 kts | 47° |
| 2026-05-05 20:28 | 53.63145 | 9.99965 | 45 ft | 1 kts | 47° |
| 2026-05-05 20:28 | 53.63164 | 9.99999 | 45 ft | 5 kts | 47° |
| 2026-05-05 20:28 | 53.63195 | 10.00059 | 45 ft | 9 kts | 50° |
| 2026-05-05 20:29 | 53.63237 | 10.00149 | 46 ft | 11 kts | 54° |
| 2026-05-05 20:29 | 53.63285 | 10.00247 | 46 ft | 10 kts | 59° |
| 2026-05-05 20:29 | 53.63293 | 10.00311 | 46 ft | 3 kts | 88° |
| 2026-05-05 20:29 | 53.63294 | 10.00336 | 46 ft | 2 kts | 86° |
| 2026-05-05 20:30 | 53.63295 | 10.00349 | 46 ft | 1 kts | 86° |
| 2026-05-05 20:30 | 53.63295 | 10.00353 | 46 ft | 1 kts | 86° |
| 2026-05-05 20:30 | 53.63295 | 10.00356 | 46 ft | 0 kts | 86° |